sensor_id;sensor_type;location;lat;lon;timestamp;pressure;altitude;pressure_sealevel;temperature;humidity
60055;BME280;45930;53.514;55.904;2023-02-13T00:00:35;49662.84;;;-149.77;48.39
60055;BME280;45930;53.514;55.904;2023-02-13T00:01:36;49666.81;;;-149.77;48.47
60055;BME280;45930;53.514;55.904;2023-02-13T00:02:37;49637.09;;;-149.77;48.56
60055;BME280;45930;53.514;55.904;2023-02-13T00:03:38;49599.44;;;-149.77;48.46
60055;BME280;45930;53.514;55.904;2023-02-13T00:04:38;49662.84;;;-149.77;48.51
60055;BME280;45930;53.514;55.904;2023-02-13T00:05:39;49643.03;;;-149.77;48.51
60055;BME280;45930;53.514;55.904;2023-02-13T00:06:40;49639.06;;;-149.77;48.63
60055;BME280;45930;53.514;55.904;2023-02-13T00:07:41;49633.13;;;-149.77;48.54
60055;BME280;45930;53.514;55.904;2023-02-13T00:08:42;49648.97;;;-149.77;48.54
60055;BME280;45930;53.514;55.904;2023-02-13T00:09:43;49658.88;;;-149.77;48.49
60055;BME280;45930;53.514;55.904;2023-02-13T00:10:43;49639.06;;;-149.77;48.51
60055;BME280;45930;53.514;55.904;2023-02-13T00:11:44;49658.88;;;-149.77;48.96
60055;BME280;45930;53.514;55.904;2023-02-13T00:12:45;49662.84;;;-149.77;48.77
60055;BME280;45930;53.514;55.904;2023-02-13T00:13:46;49650.94;;;-149.77;48.61
60055;BME280;45930;53.514;55.904;2023-02-13T00:14:47;49682.66;;;-149.77;48.93
60055;BME280;45930;53.514;55.904;2023-02-13T00:15:58;49647.00;;;-149.77;49.03
60055;BME280;45930;53.514;55.904;2023-02-13T00:16:59;49660.84;;;-149.77;49.01
60055;BME280;45930;53.514;55.904;2023-02-13T00:18:01;49645.00;;;-149.77;49.01
60055;BME280;45930;53.514;55.904;2023-02-13T00:19:02;49656.91;;;-149.77;48.80
60055;BME280;45930;53.514;55.904;2023-02-13T00:20:03;49643.03;;;-149.77;49.08
60055;BME280;45930;53.514;55.904;2023-02-13T00:21:10;49647.00;;;-149.77;49.40
60055;BME280;45930;53.514;55.904;2023-02-13T00:22:11;49611.34;;;-149.77;49.93
60055;BME280;45930;53.514;55.904;2023-02-13T00:23:12;49645.00;;;-149.77;49.88
60055;BME280;45930;53.514;55.904;2023-02-13T00:24:12;49647.00;;;-149.77;49.82
60055;BME280;45930;53.514;55.904;2023-02-13T00:25:14;49664.81;;;-149.77;49.87
60055;BME280;45930;53.514;55.904;2023-02-13T00:26:16;49662.84;;;-149.77;49.49
60055;BME280;45930;53.514;55.904;2023-02-13T00:27:17;49660.84;;;-149.77;49.66
60055;BME280;45930;53.514;55.904;2023-02-13T00:28:18;49666.81;;;-149.77;49.76
60055;BME280;45930;53.514;55.904;2023-02-13T00:29:19;49637.09;;;-149.77;49.77
60055;BME280;45930;53.514;55.904;2023-02-13T00:30:20;49627.19;;;-149.77;49.81
60055;BME280;45930;53.514;55.904;2023-02-13T00:31:21;49639.06;;;-149.77;49.78
60055;BME280;45930;53.514;55.904;2023-02-13T00:32:21;49611.34;;;-149.77;50.04
60055;BME280;45930;53.514;55.904;2023-02-13T00:33:22;49654.91;;;-149.77;50.06
60055;BME280;45930;53.514;55.904;2023-02-13T00:34:23;49648.97;;;-149.77;49.79
60055;BME280;45930;53.514;55.904;2023-02-13T00:35:24;49637.09;;;-149.77;49.71
60055;BME280;45930;53.514;55.904;2023-02-13T00:36:25;49650.94;;;-149.77;49.56
60055;BME280;45930;53.514;55.904;2023-02-13T00:37:25;49647.00;;;-149.77;49.70
60055;BME280;45930;53.514;55.904;2023-02-13T00:38:28;49619.25;;;-149.77;50.07
60055;BME280;45930;53.514;55.904;2023-02-13T00:39:29;49607.38;;;-149.77;50.14
60055;BME280;45930;53.514;55.904;2023-02-13T00:40:30;49650.94;;;-149.77;49.95
60055;BME280;45930;53.514;55.904;2023-02-13T00:41:31;49639.06;;;-149.77;50.01
60055;BME280;45930;53.514;55.904;2023-02-13T00:42:32;49643.03;;;-149.77;50.04
60055;BME280;45930;53.514;55.904;2023-02-13T00:43:33;49643.03;;;-149.77;50.12
60055;BME280;45930;53.514;55.904;2023-02-13T00:44:34;49635.09;;;-149.77;50.37
60055;BME280;45930;53.514;55.904;2023-02-13T00:45:35;49650.94;;;-149.77;50.20
60055;BME280;45930;53.514;55.904;2023-02-13T00:46:36;49647.00;;;-149.77;49.96
60055;BME280;45930;53.514;55.904;2023-02-13T00:47:38;49637.09;;;-149.77;50.14
60055;BME280;45930;53.514;55.904;2023-02-13T00:48:38;49641.06;;;-149.77;49.82
60055;BME280;45930;53.514;55.904;2023-02-13T00:49:39;49656.91;;;-149.77;49.88
60055;BME280;45930;53.514;55.904;2023-02-13T00:50:41;49656.91;;;-149.77;50.02
60055;BME280;45930;53.514;55.904;2023-02-13T00:51:41;49648.97;;;-149.77;50.16
60055;BME280;45930;53.514;55.904;2023-02-13T00:52:43;49658.88;;;-149.77;49.98
60055;BME280;45930;53.514;55.904;2023-02-13T00:53:43;49645.00;;;-149.77;50.05
60055;BME280;45930;53.514;55.904;2023-02-13T00:54:44;49680.66;;;-149.77;50.13
60055;BME280;45930;53.514;55.904;2023-02-13T00:55:46;49647.00;;;-149.77;50.35
60055;BME280;45930;53.514;55.904;2023-02-13T00:56:48;49633.13;;;-149.77;50.12
60055;BME280;45930;53.514;55.904;2023-02-13T00:57:48;49623.22;;;-149.77;50.05
60055;BME280;45930;53.514;55.904;2023-02-13T00:58:49;49619.25;;;-149.77;50.08
60055;BME280;45930;53.514;55.904;2023-02-13T00:59:50;49629.16;;;-149.77;50.24
60055;BME280;45930;53.514;55.904;2023-02-13T01:00:52;49658.88;;;-149.77;50.21
60055;BME280;45930;53.514;55.904;2023-02-13T01:01:53;49605.38;;;-149.77;50.07
60055;BME280;45930;53.514;55.904;2023-02-13T01:02:54;49643.03;;;-149.77;50.38
60055;BME280;45930;53.514;55.904;2023-02-13T01:03:54;49698.50;;;-149.77;50.22
60055;BME280;45930;53.514;55.904;2023-02-13T01:04:55;49658.88;;;-149.77;50.08
60055;BME280;45930;53.514;55.904;2023-02-13T01:05:56;49609.34;;;-149.77;50.16
60055;BME280;45930;53.514;55.904;2023-02-13T01:06:57;49645.00;;;-149.77;50.23
60055;BME280;45930;53.514;55.904;2023-02-13T01:07:58;49647.00;;;-149.77;50.27
60055;BME280;45930;53.514;55.904;2023-02-13T01:08:59;49647.00;;;-149.77;50.53
60055;BME280;45930;53.514;55.904;2023-02-13T01:10:00;49650.94;;;-149.77;50.73
60055;BME280;45930;53.514;55.904;2023-02-13T01:11:00;49635.09;;;-149.77;50.74
60055;BME280;45930;53.514;55.904;2023-02-13T01:12:01;49650.94;;;-149.77;50.55
60055;BME280;45930;53.514;55.904;2023-02-13T01:13:02;49654.91;;;-149.77;50.53
60055;BME280;45930;53.514;55.904;2023-02-13T01:14:04;49629.16;;;-149.77;50.56
60055;BME280;45930;53.514;55.904;2023-02-13T01:15:05;49639.06;;;-149.77;50.74
60055;BME280;45930;53.514;55.904;2023-02-13T01:16:06;49656.91;;;-149.77;50.33
60055;BME280;45930;53.514;55.904;2023-02-13T01:17:07;49633.13;;;-149.77;50.45
60055;BME280;45930;53.514;55.904;2023-02-13T01:18:08;49652.94;;;-149.77;50.53
60055;BME280;45930;53.514;55.904;2023-02-13T01:19:09;49595.50;;;-149.77;50.83
60055;BME280;45930;53.514;55.904;2023-02-13T01:20:11;49621.25;;;-149.77;50.57
60055;BME280;45930;53.514;55.904;2023-02-13T01:21:17;49650.94;;;-149.77;50.75
60055;BME280;45930;53.514;55.904;2023-02-13T01:22:19;49643.03;;;-149.77;50.63
60055;BME280;45930;53.514;55.904;2023-02-13T01:23:20;49603.41;;;-149.77;50.54
60055;BME280;45930;53.514;55.904;2023-02-13T01:24:20;49617.28;;;-149.77;50.55
60055;BME280;45930;53.514;55.904;2023-02-13T01:25:21;49664.81;;;-149.77;50.70
60055;BME280;45930;53.514;55.904;2023-02-13T01:26:23;49682.66;;;-149.77;50.69
60055;BME280;45930;53.514;55.904;2023-02-13T01:27:25;49648.97;;;-149.77;50.81
60055;BME280;45930;53.514;55.904;2023-02-13T01:28:26;49660.84;;;-149.77;50.84
60055;BME280;45930;53.514;55.904;2023-02-13T01:29:28;49670.75;;;-149.77;51.01
60055;BME280;45930;53.514;55.904;2023-02-13T01:30:29;49684.63;;;-149.77;51.07
60055;BME280;45930;53.514;55.904;2023-02-13T01:31:29;49654.91;;;-149.77;51.34
60055;BME280;45930;53.514;55.904;2023-02-13T01:32:30;49648.97;;;-149.77;51.42
60055;BME280;45930;53.514;55.904;2023-02-13T01:33:31;49652.94;;;-149.77;51.69
60055;BME280;45930;53.514;55.904;2023-02-13T01:34:32;49635.09;;;-149.77;51.68
60055;BME280;45930;53.514;55.904;2023-02-13T01:35:33;49666.81;;;-149.77;51.60
60055;BME280;45930;53.514;55.904;2023-02-13T01:36:34;49654.91;;;-149.77;51.90
60055;BME280;45930;53.514;55.904;2023-02-13T01:37:35;49654.91;;;-149.77;51.80
60055;BME280;45930;53.514;55.904;2023-02-13T01:38:37;49662.84;;;-149.77;51.83
60055;BME280;45930;53.514;55.904;2023-02-13T01:39:37;49682.66;;;-149.77;51.73
60055;BME280;45930;53.514;55.904;2023-02-13T01:40:46;49682.66;;;-149.77;52.05
60055;BME280;45930;53.514;55.904;2023-02-13T01:41:48;49654.91;;;-149.77;52.26
60055;BME280;45930;53.514;55.904;2023-02-13T01:42:48;49660.84;;;-149.77;52.30
60055;BME280;45930;53.514;55.904;2023-02-13T01:45:01;49647.00;;;-149.77;52.61
60055;BME280;45930;53.514;55.904;2023-02-13T01:46:01;49643.03;;;-149.77;52.55
60055;BME280;45930;53.514;55.904;2023-02-13T01:47:04;49666.81;;;-149.77;52.23
60055;BME280;45930;53.514;55.904;2023-02-13T01:48:12;49637.09;;;-149.77;52.48
60055;BME280;45930;53.514;55.904;2023-02-13T01:49:19;49641.06;;;-149.77;52.97
60055;BME280;45930;53.514;55.904;2023-02-13T01:51:27;49629.16;;;-149.77;53.38
60055;BME280;45930;53.514;55.904;2023-02-13T01:52:29;49645.00;;;-149.77;53.47
60055;BME280;45930;53.514;55.904;2023-02-13T01:53:46;49654.91;;;-149.77;53.65
60055;BME280;45930;53.514;55.904;2023-02-13T01:54:47;49650.94;;;-149.77;53.36
60055;BME280;45930;53.514;55.904;2023-02-13T01:55:55;49631.16;;;-149.77;53.12
60055;BME280;45930;53.514;55.904;2023-02-13T01:57:01;49641.06;;;-149.77;53.36
60055;BME280;45930;53.514;55.904;2023-02-13T01:58:08;49627.19;;;-149.77;53.27
60055;BME280;45930;53.514;55.904;2023-02-13T01:59:14;49654.91;;;-149.77;53.25
60055;BME280;45930;53.514;55.904;2023-02-13T02:00:17;49639.06;;;-149.77;53.22
60055;BME280;45930;53.514;55.904;2023-02-13T02:01:18;49627.19;;;-149.77;53.15
60055;BME280;45930;53.514;55.904;2023-02-13T02:02:20;49637.09;;;-149.77;53.29
60055;BME280;45930;53.514;55.904;2023-02-13T02:03:30;49633.13;;;-149.77;53.40
60055;BME280;45930;53.514;55.904;2023-02-13T02:04:37;49631.16;;;-149.77;53.02
60055;BME280;45930;53.514;55.904;2023-02-13T02:05:38;49631.16;;;-149.77;53.17
60055;BME280;45930;53.514;55.904;2023-02-13T02:06:49;49670.75;;;-149.77;53.54
60055;BME280;45930;53.514;55.904;2023-02-13T02:07:51;49662.84;;;-149.77;53.64
60055;BME280;45930;53.514;55.904;2023-02-13T02:08:54;49627.19;;;-149.77;53.85
60055;BME280;45930;53.514;55.904;2023-02-13T02:10:00;49623.22;;;-149.77;53.94
60055;BME280;45930;53.514;55.904;2023-02-13T02:11:10;49643.03;;;-149.77;54.24
60055;BME280;45930;53.514;55.904;2023-02-13T02:12:28;49643.03;;;-149.77;54.22
60055;BME280;45930;53.514;55.904;2023-02-13T02:13:31;49625.19;;;-149.77;54.26
60055;BME280;45930;53.514;55.904;2023-02-13T02:14:32;49645.00;;;-149.77;54.19
60055;BME280;45930;53.514;55.904;2023-02-13T02:15:33;49654.91;;;-149.77;54.18
60055;BME280;45930;53.514;55.904;2023-02-13T02:16:34;49637.09;;;-149.77;53.98
60055;BME280;45930;53.514;55.904;2023-02-13T02:17:35;49603.41;;;-149.77;54.10
60055;BME280;45930;53.514;55.904;2023-02-13T02:18:35;49643.03;;;-149.77;53.77
60055;BME280;45930;53.514;55.904;2023-02-13T02:37:43;49647.00;;;-149.77;54.02
60055;BME280;45930;53.514;55.904;2023-02-13T02:40:24;49631.16;;;-149.77;54.36
60055;BME280;45930;53.514;55.904;2023-02-13T02:41:45;49650.94;;;-149.77;54.66
60055;BME280;45930;53.514;55.904;2023-02-13T02:48:42;49629.16;;;-149.77;53.53
60055;BME280;45930;53.514;55.904;2023-02-13T02:51:25;49627.19;;;-149.77;53.49
60055;BME280;45930;53.514;55.904;2023-02-13T02:53:56;49662.84;;;-149.77;53.32
60055;BME280;45930;53.514;55.904;2023-02-13T02:55:17;49680.66;;;-149.77;53.52
60055;BME280;45930;53.514;55.904;2023-02-13T02:56:35;49641.06;;;-149.77;53.37
60055;BME280;45930;53.514;55.904;2023-02-13T02:57:48;49664.81;;;-149.77;53.57
60055;BME280;45930;53.514;55.904;2023-02-13T02:59:15;49648.97;;;-149.77;53.68
60055;BME280;45930;53.514;55.904;2023-02-13T03:00:38;49658.88;;;-149.77;52.91
60055;BME280;45930;53.514;55.904;2023-02-13T03:01:59;49670.75;;;-149.77;52.92
60055;BME280;45930;53.514;55.904;2023-02-13T03:03:30;49643.03;;;-149.77;53.37
60055;BME280;45930;53.514;55.904;2023-02-13T03:04:52;49648.97;;;-149.77;53.85
60055;BME280;45930;53.514;55.904;2023-02-13T03:06:16;49633.13;;;-149.77;53.24
60055;BME280;45930;53.514;55.904;2023-02-13T03:07:19;49650.94;;;-149.77;53.65
60055;BME280;45930;53.514;55.904;2023-02-13T03:08:20;49664.81;;;-149.77;53.35
60055;BME280;45930;53.514;55.904;2023-02-13T03:09:46;49662.84;;;-149.77;54.06
60055;BME280;45930;53.514;55.904;2023-02-13T03:11:06;49656.91;;;-149.77;54.17
60055;BME280;45930;53.514;55.904;2023-02-13T03:12:51;49654.91;;;-149.77;54.18
60055;BME280;45930;53.514;55.904;2023-02-13T03:14:15;49621.25;;;-149.77;53.93
60055;BME280;45930;53.514;55.904;2023-02-13T03:15:19;49631.16;;;-149.77;53.51
60055;BME280;45930;53.514;55.904;2023-02-13T03:16:23;49662.84;;;-149.77;53.75
60055;BME280;45930;53.514;55.904;2023-02-13T03:17:43;49639.06;;;-149.77;52.80
60055;BME280;45930;53.514;55.904;2023-02-13T03:19:03;49660.84;;;-149.77;53.22
60055;BME280;45930;53.514;55.904;2023-02-13T03:20:48;49639.06;;;-149.77;53.38
60055;BME280;45930;53.514;55.904;2023-02-13T03:23:59;49641.06;;;-149.77;53.37
60055;BME280;45930;53.514;55.904;2023-02-13T03:28:28;49656.91;;;-149.77;53.08
60055;BME280;45930;53.514;55.904;2023-02-13T03:29:59;49639.06;;;-149.77;53.25
60055;BME280;45930;53.514;55.904;2023-02-13T03:31:30;49627.19;;;-149.77;53.10
60055;BME280;45930;53.514;55.904;2023-02-13T03:34:13;49647.00;;;-149.77;52.90
60055;BME280;45930;53.514;55.904;2023-02-13T03:37:15;49647.00;;;-149.77;53.16
60055;BME280;45930;53.514;55.904;2023-02-13T03:38:56;49664.81;;;-149.77;53.27
60055;BME280;45930;53.514;55.904;2023-02-13T03:41:11;49635.09;;;-149.77;53.74
60055;BME280;45930;53.514;55.904;2023-02-13T03:42:31;49627.19;;;-149.77;53.97
60055;BME280;45930;53.514;55.904;2023-02-13T03:43:43;49643.03;;;-149.77;53.96
60055;BME280;45930;53.514;55.904;2023-02-13T03:45:03;49637.09;;;-149.77;53.74
60055;BME280;45930;53.514;55.904;2023-02-13T03:46:25;49629.16;;;-149.77;53.64
60055;BME280;45930;53.514;55.904;2023-02-13T03:47:27;49650.94;;;-149.77;53.92
60055;BME280;45930;53.514;55.904;2023-02-13T03:48:33;49631.16;;;-149.77;53.78
60055;BME280;45930;53.514;55.904;2023-02-13T03:49:54;49643.03;;;-149.77;53.72
60055;BME280;45930;53.514;55.904;2023-02-13T03:51:07;49660.84;;;-149.77;53.66
60055;BME280;45930;53.514;55.904;2023-02-13T03:52:17;49662.84;;;-149.77;53.77
60055;BME280;45930;53.514;55.904;2023-02-13T03:53:23;49627.19;;;-149.77;53.94
60055;BME280;45930;53.514;55.904;2023-02-13T03:54:32;49652.94;;;-149.77;54.02
60055;BME280;45930;53.514;55.904;2023-02-13T03:55:54;49635.09;;;-149.77;53.74
60055;BME280;45930;53.514;55.904;2023-02-13T03:57:18;49652.94;;;-149.77;53.77
60055;BME280;45930;53.514;55.904;2023-02-13T03:58:42;49615.28;;;-149.77;53.79
60055;BME280;45930;53.514;55.904;2023-02-13T04:00:08;49639.06;;;-149.77;53.87
60055;BME280;45930;53.514;55.904;2023-02-13T04:01:12;49629.16;;;-149.77;54.00
60055;BME280;45930;53.514;55.904;2023-02-13T04:02:19;49635.09;;;-149.77;53.93
60055;BME280;45930;53.514;55.904;2023-02-13T04:03:27;49652.94;;;-149.77;53.88
60055;BME280;45930;53.514;55.904;2023-02-13T04:05:51;49645.00;;;-149.77;54.04
60055;BME280;45930;53.514;55.904;2023-02-13T04:07:03;49607.38;;;-149.77;54.29
60055;BME280;45930;53.514;55.904;2023-02-13T04:08:05;49660.84;;;-149.77;53.97
60055;BME280;45930;53.514;55.904;2023-02-13T04:09:06;49652.94;;;-149.77;54.03
60055;BME280;45930;53.514;55.904;2023-02-13T04:10:13;49631.16;;;-149.77;53.74
60055;BME280;45930;53.514;55.904;2023-02-13T04:11:20;49666.81;;;-149.77;53.90
60055;BME280;45930;53.514;55.904;2023-02-13T04:13:54;49664.81;;;-149.77;53.89
60055;BME280;45930;53.514;55.904;2023-02-13T04:15:21;49633.13;;;-149.77;53.94
60055;BME280;45930;53.514;55.904;2023-02-13T04:18:14;49635.09;;;-149.77;53.42
60055;BME280;45930;53.514;55.904;2023-02-13T04:19:17;49639.06;;;-149.77;53.77
60055;BME280;45930;53.514;55.904;2023-02-13T04:20:19;49623.22;;;-149.77;53.67
60055;BME280;45930;53.514;55.904;2023-02-13T04:21:20;49654.91;;;-149.77;53.49
60055;BME280;45930;53.514;55.904;2023-02-13T04:22:20;49603.41;;;-149.77;53.68
60055;BME280;45930;53.514;55.904;2023-02-13T04:23:21;49645.00;;;-149.77;53.15
60055;BME280;45930;53.514;55.904;2023-02-13T04:24:23;49611.34;;;-149.77;53.54
60055;BME280;45930;53.514;55.904;2023-02-13T04:25:24;49645.00;;;-149.77;53.51
60055;BME280;45930;53.514;55.904;2023-02-13T04:26:31;49656.91;;;-149.77;53.58
60055;BME280;45930;53.514;55.904;2023-02-13T04:27:33;49641.06;;;-149.77;53.95
60055;BME280;45930;53.514;55.904;2023-02-13T04:28:33;49625.19;;;-149.77;53.17
60055;BME280;45930;53.514;55.904;2023-02-13T04:29:34;49623.22;;;-149.77;53.39
60055;BME280;45930;53.514;55.904;2023-02-13T04:30:35;49635.09;;;-149.77;53.12
60055;BME280;45930;53.514;55.904;2023-02-13T04:31:36;49627.19;;;-149.77;53.17
60055;BME280;45930;53.514;55.904;2023-02-13T04:32:37;49613.31;;;-149.77;53.51
60055;BME280;45930;53.514;55.904;2023-02-13T04:33:38;49635.09;;;-149.77;53.47
60055;BME280;45930;53.514;55.904;2023-02-13T04:34:38;49571.72;;;-149.77;53.37
60055;BME280;45930;53.514;55.904;2023-02-13T04:35:39;49637.09;;;-149.77;53.45
60055;BME280;45930;53.514;55.904;2023-02-13T04:36:40;49609.34;;;-149.77;53.54
60055;BME280;45930;53.514;55.904;2023-02-13T04:37:41;49639.06;;;-149.77;53.54
60055;BME280;45930;53.514;55.904;2023-02-13T04:38:42;49593.50;;;-149.77;53.12
60055;BME280;45930;53.514;55.904;2023-02-13T04:39:42;49595.50;;;-149.77;53.14
60055;BME280;45930;53.514;55.904;2023-02-13T04:40:43;49593.50;;;-149.77;53.04
60055;BME280;45930;53.514;55.904;2023-02-13T04:41:44;49607.38;;;-149.77;53.29
60055;BME280;45930;53.514;55.904;2023-02-13T04:42:46;49603.41;;;-149.77;53.13
60055;BME280;45930;53.514;55.904;2023-02-13T04:43:48;49599.44;;;-149.77;52.70
60055;BME280;45930;53.514;55.904;2023-02-13T04:44:51;49587.56;;;-149.77;52.52
60055;BME280;45930;53.514;55.904;2023-02-13T04:45:52;49593.50;;;-149.77;52.61
60055;BME280;45930;53.514;55.904;2023-02-13T04:46:52;49595.50;;;-149.77;52.72
60055;BME280;45930;53.514;55.904;2023-02-13T04:47:55;49601.44;;;-149.77;52.55
60055;BME280;45930;53.514;55.904;2023-02-13T04:48:56;49595.50;;;-149.77;52.85
60055;BME280;45930;53.514;55.904;2023-02-13T04:49:57;49595.50;;;-149.77;52.77
60055;BME280;45930;53.514;55.904;2023-02-13T04:50:57;49615.28;;;-149.77;52.45
60055;BME280;45930;53.514;55.904;2023-02-13T04:51:58;49607.38;;;-149.77;52.21
60055;BME280;45930;53.514;55.904;2023-02-13T04:52:59;49613.31;;;-149.77;52.37
60055;BME280;45930;53.514;55.904;2023-02-13T04:54:00;49605.38;;;-149.77;52.29
60055;BME280;45930;53.514;55.904;2023-02-13T04:55:00;49579.63;;;-149.77;52.29
60055;BME280;45930;53.514;55.904;2023-02-13T04:56:01;49593.50;;;-149.77;52.35
60055;BME280;45930;53.514;55.904;2023-02-13T04:57:02;49581.63;;;-149.77;52.33
60055;BME280;45930;53.514;55.904;2023-02-13T04:58:03;49579.63;;;-149.77;51.63
60055;BME280;45930;53.514;55.904;2023-02-13T04:59:04;49599.44;;;-149.77;51.65
60055;BME280;45930;53.514;55.904;2023-02-13T05:00:05;49611.34;;;-149.77;51.58
60055;BME280;45930;53.514;55.904;2023-02-13T05:01:13;49597.47;;;-149.77;51.65
60055;BME280;45930;53.514;55.904;2023-02-13T05:02:15;49605.38;;;-149.77;51.96
60055;BME280;45930;53.514;55.904;2023-02-13T05:03:15;49613.31;;;-149.77;51.69
60055;BME280;45930;53.514;55.904;2023-02-13T05:04:16;49603.41;;;-149.77;52.13
60055;BME280;45930;53.514;55.904;2023-02-13T05:05:18;49607.38;;;-149.77;51.66
60055;BME280;45930;53.514;55.904;2023-02-13T05:06:19;49603.41;;;-149.77;52.13
60055;BME280;45930;53.514;55.904;2023-02-13T05:07:19;49581.63;;;-149.77;52.46
60055;BME280;45930;53.514;55.904;2023-02-13T05:08:20;49617.28;;;-149.77;51.99
60055;BME280;45930;53.514;55.904;2023-02-13T05:09:21;49607.38;;;-149.77;51.88
60055;BME280;45930;53.514;55.904;2023-02-13T05:10:22;49587.56;;;-149.77;52.16
60055;BME280;45930;53.514;55.904;2023-02-13T05:11:23;49575.69;;;-149.77;52.52
60055;BME280;45930;53.514;55.904;2023-02-13T05:12:23;49593.50;;;-149.77;51.43
60055;BME280;45930;53.514;55.904;2023-02-13T05:13:24;49569.72;;;-149.77;51.94
60055;BME280;45930;53.514;55.904;2023-02-13T05:14:25;49559.81;;;-149.77;51.93
60055;BME280;45930;53.514;55.904;2023-02-13T05:15:26;49585.59;;;-149.77;51.60
60055;BME280;45930;53.514;55.904;2023-02-13T05:16:27;49567.75;;;-149.77;51.03
60055;BME280;45930;53.514;55.904;2023-02-13T05:17:27;49551.91;;;-149.77;50.92
60055;BME280;45930;53.514;55.904;2023-02-13T05:18:28;49589.53;;;-149.77;50.97
60055;BME280;45930;53.514;55.904;2023-02-13T05:19:29;49543.97;;;-149.77;50.90
60055;BME280;45930;53.514;55.904;2023-02-13T05:20:29;49579.63;;;-149.77;50.92
60055;BME280;45930;53.514;55.904;2023-02-13T05:21:30;49551.91;;;-149.77;50.25
60055;BME280;45930;53.514;55.904;2023-02-13T05:22:51;49565.78;;;-149.77;49.24
60055;BME280;45930;53.514;55.904;2023-02-13T05:24:11;49538.03;;;-149.77;49.73
60055;BME280;45930;53.514;55.904;2023-02-13T05:25:11;49567.75;;;-149.77;49.93
60055;BME280;45930;53.514;55.904;2023-02-13T05:26:13;49536.06;;;-149.77;49.49
60055;BME280;45930;53.514;55.904;2023-02-13T05:27:16;49540.03;;;-149.77;49.69
60055;BME280;45930;53.514;55.904;2023-02-13T05:28:17;49563.78;;;-149.77;49.41
60055;BME280;45930;53.514;55.904;2023-02-13T05:29:36;49542.00;;;-149.77;49.41
60055;BME280;45930;53.514;55.904;2023-02-13T05:30:37;49583.59;;;-149.77;49.68
60055;BME280;45930;53.514;55.904;2023-02-13T05:31:39;49555.88;;;-149.77;49.54
60055;BME280;45930;53.514;55.904;2023-02-13T05:32:40;49569.72;;;-149.77;49.33
60055;BME280;45930;53.514;55.904;2023-02-13T05:33:42;49575.69;;;-149.77;49.31
60055;BME280;45930;53.514;55.904;2023-02-13T05:34:43;49543.97;;;-149.77;49.43
60055;BME280;45930;53.514;55.904;2023-02-13T05:35:44;49553.88;;;-149.77;48.72
60055;BME280;45930;53.514;55.904;2023-02-13T05:36:44;49536.06;;;-149.77;49.55
60055;BME280;45930;53.514;55.904;2023-02-13T05:37:45;49542.00;;;-149.77;49.71
60055;BME280;45930;53.514;55.904;2023-02-13T05:38:46;49559.81;;;-149.77;49.74
60055;BME280;45930;53.514;55.904;2023-02-13T05:39:47;49563.78;;;-149.77;49.27
60055;BME280;45930;53.514;55.904;2023-02-13T05:40:48;49547.94;;;-149.77;49.60
60055;BME280;45930;53.514;55.904;2023-02-13T05:41:49;49563.78;;;-149.77;49.68
60055;BME280;45930;53.514;55.904;2023-02-13T05:42:52;49536.06;;;-149.77;49.57
60055;BME280;45930;53.514;55.904;2023-02-13T05:43:53;49555.88;;;-149.77;49.18
60055;BME280;45930;53.514;55.904;2023-02-13T05:44:54;49545.97;;;-149.77;49.16
60055;BME280;45930;53.514;55.904;2023-02-13T05:46:03;49543.97;;;-149.77;49.16
60055;BME280;45930;53.514;55.904;2023-02-13T05:47:04;49551.91;;;-149.77;49.06
60055;BME280;45930;53.514;55.904;2023-02-13T05:48:04;49545.97;;;-149.77;48.96
60055;BME280;45930;53.514;55.904;2023-02-13T05:49:07;49547.94;;;-149.77;49.11
60055;BME280;45930;53.514;55.904;2023-02-13T05:50:09;49557.84;;;-149.77;48.98
60055;BME280;45930;53.514;55.904;2023-02-13T05:51:09;49536.06;;;-149.77;49.10
60055;BME280;45930;53.514;55.904;2023-02-13T05:52:10;49508.31;;;-149.77;48.94
60055;BME280;45930;53.514;55.904;2023-02-13T05:53:11;49536.06;;;-149.77;48.93
60055;BME280;45930;53.514;55.904;2023-02-13T05:54:12;49567.75;;;-149.77;48.75
60055;BME280;45930;53.514;55.904;2023-02-13T05:55:13;49551.91;;;-149.77;48.60
60055;BME280;45930;53.514;55.904;2023-02-13T05:56:13;49549.94;;;-149.77;48.46
60055;BME280;45930;53.514;55.904;2023-02-13T05:57:14;49524.16;;;-149.77;48.44
60055;BME280;45930;53.514;55.904;2023-02-13T05:58:15;49526.16;;;-149.77;48.29
60055;BME280;45930;53.514;55.904;2023-02-13T05:59:16;49532.09;;;-149.77;48.42
60055;BME280;45930;53.514;55.904;2023-02-13T06:00:17;49512.28;;;-149.77;48.28
60055;BME280;45930;53.514;55.904;2023-02-13T06:01:18;49504.38;;;-149.77;48.53
60055;BME280;45930;53.514;55.904;2023-02-13T06:02:19;49530.13;;;-149.77;48.14
60055;BME280;45930;53.514;55.904;2023-02-13T06:03:20;49518.22;;;-149.77;47.99
60055;BME280;45930;53.514;55.904;2023-02-13T06:04:21;49528.13;;;-149.77;47.77
60055;BME280;45930;53.514;55.904;2023-02-13T06:05:21;49532.09;;;-149.77;48.04
60055;BME280;45930;53.514;55.904;2023-02-13T06:06:22;49532.09;;;-149.77;48.15
60055;BME280;45930;53.514;55.904;2023-02-13T06:07:24;49547.94;;;-149.77;48.23
60055;BME280;45930;53.514;55.904;2023-02-13T06:08:25;49490.50;;;-149.77;47.96
60055;BME280;45930;53.514;55.904;2023-02-13T06:09:26;49530.13;;;-149.77;47.87
60055;BME280;45930;53.514;55.904;2023-02-13T06:10:26;49504.38;;;-149.77;47.57
60055;BME280;45930;53.514;55.904;2023-02-13T06:11:27;49532.09;;;-149.77;47.39
60055;BME280;45930;53.514;55.904;2023-02-13T06:12:28;49526.16;;;-149.77;47.34
60055;BME280;45930;53.514;55.904;2023-02-13T06:13:30;49520.22;;;-149.77;46.95
60055;BME280;45930;53.514;55.904;2023-02-13T06:14:30;49524.16;;;-149.77;46.97